sensor_id;sensor_type;location;lat;lon;timestamp;P1;durP1;ratioP1;P2;durP2;ratioP2
19828;SDS011;10075;50.924;4.396;2022-07-29T00:00:22;3.67;;;1.67;;
19828;SDS011;10075;50.924;4.396;2022-07-29T00:02:49;10.50;;;1.75;;
19828;SDS011;10075;50.924;4.396;2022-07-29T00:05:16;3.15;;;1.35;;
19828;SDS011;10075;50.924;4.396;2022-07-29T00:07:43;2.25;;;1.40;;
19828;SDS011;10075;50.924;4.396;2022-07-29T00:10:10;5.05;;;1.42;;
19828;SDS011;10075;50.924;4.396;2022-07-29T00:12:38;3.08;;;1.50;;
19828;SDS011;10075;50.924;4.396;2022-07-29T00:15:05;6.57;;;1.60;;
19828;SDS011;10075;50.924;4.396;2022-07-29T00:17:33;7.68;;;1.80;;
19828;SDS011;10075;50.924;4.396;2022-07-29T00:20:00;2.88;;;1.50;;
19828;SDS011;10075;50.924;4.396;2022-07-29T00:22:27;4.15;;;1.85;;
19828;SDS011;10075;50.924;4.396;2022-07-29T00:24:54;4.47;;;1.60;;
19828;SDS011;10075;50.924;4.396;2022-07-29T00:27:21;3.70;;;1.98;;
19828;SDS011;10075;50.924;4.396;2022-07-29T00:29:49;3.38;;;1.42;;
19828;SDS011;10075;50.924;4.396;2022-07-29T00:32:16;3.88;;;1.42;;
19828;SDS011;10075;50.924;4.396;2022-07-29T00:34:43;4.68;;;1.77;;
19828;SDS011;10075;50.924;4.396;2022-07-29T00:37:27;4.72;;;1.50;;
19828;SDS011;10075;50.924;4.396;2022-07-29T00:39:54;5.20;;;1.55;;
19828;SDS011;10075;50.924;4.396;2022-07-29T00:42:21;4.45;;;1.35;;
19828;SDS011;10075;50.924;4.396;2022-07-29T00:44:49;4.05;;;1.40;;
19828;SDS011;10075;50.924;4.396;2022-07-29T00:47:16;3.15;;;1.20;;
19828;SDS011;10075;50.924;4.396;2022-07-29T00:49:43;6.40;;;1.13;;
19828;SDS011;10075;50.924;4.396;2022-07-29T00:52:11;5.28;;;1.70;;
19828;SDS011;10075;50.924;4.396;2022-07-29T00:54:38;5.43;;;1.20;;
19828;SDS011;10075;50.924;4.396;2022-07-29T00:57:06;2.30;;;1.23;;
19828;SDS011;10075;50.924;4.396;2022-07-29T00:59:33;3.25;;;1.25;;
19828;SDS011;10075;50.924;4.396;2022-07-29T01:02:02;6.07;;;1.70;;
19828;SDS011;10075;50.924;4.396;2022-07-29T01:04:30;6.28;;;1.42;;
19828;SDS011;10075;50.924;4.396;2022-07-29T01:06:58;4.65;;;1.42;;
19828;SDS011;10075;50.924;4.396;2022-07-29T01:09:28;4.15;;;1.23;;
19828;SDS011;10075;50.924;4.396;2022-07-29T01:11:55;3.05;;;1.40;;
19828;SDS011;10075;50.924;4.396;2022-07-29T01:14:23;5.53;;;1.88;;
19828;SDS011;10075;50.924;4.396;2022-07-29T01:16:51;5.03;;;1.70;;
19828;SDS011;10075;50.924;4.396;2022-07-29T01:19:36;4.72;;;1.50;;
19828;SDS011;10075;50.924;4.396;2022-07-29T01:22:25;8.23;;;1.73;;
19828;SDS011;10075;50.924;4.396;2022-07-29T01:27:51;4.00;;;1.20;;
19828;SDS011;10075;50.924;4.396;2022-07-29T01:30:29;2.10;;;1.40;;
19828;SDS011;10075;50.924;4.396;2022-07-29T01:32:59;4.45;;;1.48;;
19828;SDS011;10075;50.924;4.396;2022-07-29T01:35:30;6.53;;;1.40;;
19828;SDS011;10075;50.924;4.396;2022-07-29T01:38:05;8.65;;;1.70;;
19828;SDS011;10075;50.924;4.396;2022-07-29T01:40:36;6.20;;;1.30;;
19828;SDS011;10075;50.924;4.396;2022-07-29T01:43:09;4.78;;;1.33;;
19828;SDS011;10075;50.924;4.396;2022-07-29T01:45:40;4.35;;;1.38;;
19828;SDS011;10075;50.924;4.396;2022-07-29T01:48:10;3.40;;;1.45;;
19828;SDS011;10075;50.924;4.396;2022-07-29T01:50:43;3.05;;;1.48;;
19828;SDS011;10075;50.924;4.396;2022-07-29T01:53:15;8.52;;;1.60;;
19828;SDS011;10075;50.924;4.396;2022-07-29T01:55:47;6.07;;;1.90;;
19828;SDS011;10075;50.924;4.396;2022-07-29T01:58:16;7.80;;;1.67;;
19828;SDS011;10075;50.924;4.396;2022-07-29T02:00:46;6.60;;;1.80;;
19828;SDS011;10075;50.924;4.396;2022-07-29T02:03:15;4.00;;;1.70;;
19828;SDS011;10075;50.924;4.396;2022-07-29T02:05:43;3.08;;;1.10;;
19828;SDS011;10075;50.924;4.396;2022-07-29T02:08:12;6.13;;;1.60;;
19828;SDS011;10075;50.924;4.396;2022-07-29T02:10:41;4.57;;;1.50;;
19828;SDS011;10075;50.924;4.396;2022-07-29T02:13:09;4.97;;;1.70;;
19828;SDS011;10075;50.924;4.396;2022-07-29T02:15:38;3.80;;;1.70;;
19828;SDS011;10075;50.924;4.396;2022-07-29T02:18:09;6.72;;;1.70;;
19828;SDS011;10075;50.924;4.396;2022-07-29T02:20:40;5.22;;;2.00;;
19828;SDS011;10075;50.924;4.396;2022-07-29T02:23:10;7.70;;;1.85;;
19828;SDS011;10075;50.924;4.396;2022-07-29T02:25:38;6.05;;;2.03;;
19828;SDS011;10075;50.924;4.396;2022-07-29T02:28:08;4.95;;;1.77;;
19828;SDS011;10075;50.924;4.396;2022-07-29T02:30:35;4.07;;;1.67;;
19828;SDS011;10075;50.924;4.396;2022-07-29T02:33:05;4.40;;;1.75;;
19828;SDS011;10075;50.924;4.396;2022-07-29T02:35:35;3.60;;;1.85;;
19828;SDS011;10075;50.924;4.396;2022-07-29T02:38:06;6.30;;;1.83;;
19828;SDS011;10075;50.924;4.396;2022-07-29T02:40:52;3.42;;;1.60;;
19828;SDS011;10075;50.924;4.396;2022-07-29T02:43:21;4.70;;;1.70;;
19828;SDS011;10075;50.924;4.396;2022-07-29T02:45:50;4.63;;;1.70;;
19828;SDS011;10075;50.924;4.396;2022-07-29T02:48:19;5.80;;;1.55;;
19828;SDS011;10075;50.924;4.396;2022-07-29T02:50:51;4.90;;;1.92;;
19828;SDS011;10075;50.924;4.396;2022-07-29T02:53:24;4.70;;;2.10;;
19828;SDS011;10075;50.924;4.396;2022-07-29T02:55:55;4.75;;;1.90;;
19828;SDS011;10075;50.924;4.396;2022-07-29T02:58:24;7.05;;;2.05;;
19828;SDS011;10075;50.924;4.396;2022-07-29T03:00:54;4.32;;;1.75;;
19828;SDS011;10075;50.924;4.396;2022-07-29T03:03:23;5.57;;;1.90;;
19828;SDS011;10075;50.924;4.396;2022-07-29T03:05:54;5.65;;;1.88;;
19828;SDS011;10075;50.924;4.396;2022-07-29T03:08:22;7.35;;;1.92;;
19828;SDS011;10075;50.924;4.396;2022-07-29T03:10:50;5.85;;;2.15;;
19828;SDS011;10075;50.924;4.396;2022-07-29T03:13:19;9.10;;;2.47;;
19828;SDS011;10075;50.924;4.396;2022-07-29T03:15:46;4.53;;;2.03;;
19828;SDS011;10075;50.924;4.396;2022-07-29T03:18:13;3.30;;;1.70;;
19828;SDS011;10075;50.924;4.396;2022-07-29T03:20:41;9.07;;;2.13;;
19828;SDS011;10075;50.924;4.396;2022-07-29T03:23:10;8.95;;;2.00;;
19828;SDS011;10075;50.924;4.396;2022-07-29T03:25:37;4.35;;;1.85;;
19828;SDS011;10075;50.924;4.396;2022-07-29T03:28:04;4.10;;;2.20;;
19828;SDS011;10075;50.924;4.396;2022-07-29T03:30:31;6.45;;;2.15;;
19828;SDS011;10075;50.924;4.396;2022-07-29T03:32:58;3.28;;;2.05;;
19828;SDS011;10075;50.924;4.396;2022-07-29T03:35:25;3.58;;;1.90;;
19828;SDS011;10075;50.924;4.396;2022-07-29T03:37:52;4.35;;;2.60;;
19828;SDS011;10075;50.924;4.396;2022-07-29T03:40:22;7.68;;;2.30;;
19828;SDS011;10075;50.924;4.396;2022-07-29T03:42:53;4.60;;;2.25;;
19828;SDS011;10075;50.924;4.396;2022-07-29T03:45:21;6.97;;;2.30;;
19828;SDS011;10075;50.924;4.396;2022-07-29T03:47:51;5.47;;;2.15;;
19828;SDS011;10075;50.924;4.396;2022-07-29T03:50:21;11.15;;;2.67;;
19828;SDS011;10075;50.924;4.396;2022-07-29T03:52:48;3.65;;;2.30;;
19828;SDS011;10075;50.924;4.396;2022-07-29T03:55:15;6.88;;;2.80;;
19828;SDS011;10075;50.924;4.396;2022-07-29T03:57:44;6.15;;;2.90;;
19828;SDS011;10075;50.924;4.396;2022-07-29T04:00:12;6.47;;;2.63;;
19828;SDS011;10075;50.924;4.396;2022-07-29T04:02:41;4.63;;;2.50;;
19828;SDS011;10075;50.924;4.396;2022-07-29T04:05:13;5.28;;;2.60;;
19828;SDS011;10075;50.924;4.396;2022-07-29T04:07:43;6.75;;;2.85;;
19828;SDS011;10075;50.924;4.396;2022-07-29T04:10:10;5.28;;;2.65;;
19828;SDS011;10075;50.924;4.396;2022-07-29T04:12:37;5.90;;;2.75;;
19828;SDS011;10075;50.924;4.396;2022-07-29T04:15:06;4.53;;;2.63;;
19828;SDS011;10075;50.924;4.396;2022-07-29T04:17:34;5.65;;;2.10;;
19828;SDS011;10075;50.924;4.396;2022-07-29T04:20:00;4.10;;;2.08;;
19828;SDS011;10075;50.924;4.396;2022-07-29T04:22:27;4.95;;;2.80;;
19828;SDS011;10075;50.924;4.396;2022-07-29T04:24:54;6.80;;;3.28;;
19828;SDS011;10075;50.924;4.396;2022-07-29T04:27:21;5.28;;;2.33;;
19828;SDS011;10075;50.924;4.396;2022-07-29T04:29:48;5.32;;;3.03;;
19828;SDS011;10075;50.924;4.396;2022-07-29T04:32:16;5.40;;;2.72;;
19828;SDS011;10075;50.924;4.396;2022-07-29T04:34:43;7.70;;;2.88;;
19828;SDS011;10075;50.924;4.396;2022-07-29T04:37:11;5.03;;;2.60;;
19828;SDS011;10075;50.924;4.396;2022-07-29T04:39:38;6.18;;;2.58;;
19828;SDS011;10075;50.924;4.396;2022-07-29T04:42:05;4.90;;;2.85;;
19828;SDS011;10075;50.924;4.396;2022-07-29T04:44:32;4.93;;;2.78;;
19828;SDS011;10075;50.924;4.396;2022-07-29T04:46:59;4.63;;;2.60;;
19828;SDS011;10075;50.924;4.396;2022-07-29T04:49:28;6.97;;;2.70;;
19828;SDS011;10075;50.924;4.396;2022-07-29T04:51:54;5.03;;;2.70;;
19828;SDS011;10075;50.924;4.396;2022-07-29T04:54:22;5.35;;;2.45;;
19828;SDS011;10075;50.924;4.396;2022-07-29T04:56:49;7.15;;;3.10;;
19828;SDS011;10075;50.924;4.396;2022-07-29T04:59:15;4.38;;;2.60;;
19828;SDS011;10075;50.924;4.396;2022-07-29T05:01:42;6.68;;;2.50;;
19828;SDS011;10075;50.924;4.396;2022-07-29T05:04:09;5.57;;;2.67;;
19828;SDS011;10075;50.924;4.396;2022-07-29T05:06:38;7.13;;;2.63;;
19828;SDS011;10075;50.924;4.396;2022-07-29T05:09:04;6.05;;;2.45;;
19828;SDS011;10075;50.924;4.396;2022-07-29T05:11:31;4.88;;;2.53;;
19828;SDS011;10075;50.924;4.396;2022-07-29T05:13:58;5.95;;;2.60;;
19828;SDS011;10075;50.924;4.396;2022-07-29T05:16:25;5.20;;;2.60;;
19828;SDS011;10075;50.924;4.396;2022-07-29T05:18:52;6.13;;;2.42;;
19828;SDS011;10075;50.924;4.396;2022-07-29T05:21:19;7.35;;;2.58;;
19828;SDS011;10075;50.924;4.396;2022-07-29T05:23:48;7.30;;;2.72;;
19828;SDS011;10075;50.924;4.396;2022-07-29T05:26:15;6.55;;;2.58;;
19828;SDS011;10075;50.924;4.396;2022-07-29T05:28:42;7.25;;;2.50;;
19828;SDS011;10075;50.924;4.396;2022-07-29T05:31:09;6.05;;;2.50;;
19828;SDS011;10075;50.924;4.396;2022-07-29T05:33:36;5.50;;;2.28;;
19828;SDS011;10075;50.924;4.396;2022-07-29T05:36:03;7.20;;;2.70;;
19828;SDS011;10075;50.924;4.396;2022-07-29T05:38:31;3.85;;;2.50;;
19828;SDS011;10075;50.924;4.396;2022-07-29T05:41:00;5.13;;;2.55;;
19828;SDS011;10075;50.924;4.396;2022-07-29T05:43:27;6.47;;;2.33;;
19828;SDS011;10075;50.924;4.396;2022-07-29T05:45:54;4.60;;;2.70;;
19828;SDS011;10075;50.924;4.396;2022-07-29T05:48:21;5.85;;;2.70;;
19828;SDS011;10075;50.924;4.396;2022-07-29T05:50:48;5.78;;;2.67;;
19828;SDS011;10075;50.924;4.396;2022-07-29T05:53:15;6.28;;;2.58;;
19828;SDS011;10075;50.924;4.396;2022-07-29T05:55:42;6.15;;;2.75;;
19828;SDS011;10075;50.924;4.396;2022-07-29T05:58:11;7.28;;;2.97;;
19828;SDS011;10075;50.924;4.396;2022-07-29T06:00:38;10.57;;;3.00;;
19828;SDS011;10075;50.924;4.396;2022-07-29T06:03:05;9.20;;;2.88;;
19828;SDS011;10075;50.924;4.396;2022-07-29T06:05:32;5.78;;;2.67;;
19828;SDS011;10075;50.924;4.396;2022-07-29T06:07:58;5.63;;;2.80;;
19828;SDS011;10075;50.924;4.396;2022-07-29T06:10:26;7.03;;;3.13;;
19828;SDS011;10075;50.924;4.396;2022-07-29T06:12:52;7.47;;;3.13;;
19828;SDS011;10075;50.924;4.396;2022-07-29T06:15:21;4.93;;;2.92;;
19828;SDS011;10075;50.924;4.396;2022-07-29T06:17:48;6.78;;;3.47;;
19828;SDS011;10075;50.924;4.396;2022-07-29T06:20:14;6.95;;;2.83;;
19828;SDS011;10075;50.924;4.396;2022-07-29T06:22:41;6.18;;;2.90;;
19828;SDS011;10075;50.924;4.396;2022-07-29T06:25:09;7.60;;;3.42;;
19828;SDS011;10075;50.924;4.396;2022-07-29T06:27:37;6.85;;;3.00;;
19828;SDS011;10075;50.924;4.396;2022-07-29T06:30:04;7.25;;;3.70;;
19828;SDS011;10075;50.924;4.396;2022-07-29T06:32:34;7.47;;;3.50;;
19828;SDS011;10075;50.924;4.396;2022-07-29T06:35:02;5.30;;;3.40;;
19828;SDS011;10075;50.924;4.396;2022-07-29T06:37:30;6.13;;;2.95;;
19828;SDS011;10075;50.924;4.396;2022-07-29T06:39:57;5.63;;;2.95;;
19828;SDS011;10075;50.924;4.396;2022-07-29T06:42:38;10.90;;;3.72;;
19828;SDS011;10075;50.924;4.396;2022-07-29T06:45:08;6.53;;;3.53;;
19828;SDS011;10075;50.924;4.396;2022-07-29T06:47:37;5.55;;;3.28;;
19828;SDS011;10075;50.924;4.396;2022-07-29T06:50:04;5.65;;;3.15;;
19828;SDS011;10075;50.924;4.396;2022-07-29T06:52:32;7.15;;;3.75;;
19828;SDS011;10075;50.924;4.396;2022-07-29T06:54:59;8.75;;;3.97;;
19828;SDS011;10075;50.924;4.396;2022-07-29T06:57:26;5.90;;;3.33;;
19828;SDS011;10075;50.924;4.396;2022-07-29T06:59:53;5.88;;;3.75;;
19828;SDS011;10075;50.924;4.396;2022-07-29T07:02:22;8.50;;;3.45;;
19828;SDS011;10075;50.924;4.396;2022-07-29T07:04:50;11.43;;;3.88;;
19828;SDS011;10075;50.924;4.396;2022-07-29T07:07:18;8.15;;;3.13;;
19828;SDS011;10075;50.924;4.396;2022-07-29T07:09:45;4.93;;;3.08;;
19828;SDS011;10075;50.924;4.396;2022-07-29T07:12:12;10.30;;;3.75;;
19828;SDS011;10075;50.924;4.396;2022-07-29T07:14:39;6.55;;;3.00;;
19828;SDS011;10075;50.924;4.396;2022-07-29T07:17:06;6.28;;;3.38;;
19828;SDS011;10075;50.924;4.396;2022-07-29T07:19:33;8.57;;;3.40;;
19828;SDS011;10075;50.924;4.396;2022-07-29T07:22:01;6.15;;;3.67;;
19828;SDS011;10075;50.924;4.396;2022-07-29T07:24:28;7.88;;;3.60;;
19828;SDS011;10075;50.924;4.396;2022-07-29T07:26:56;8.07;;;3.75;;
19828;SDS011;10075;50.924;4.396;2022-07-29T07:29:22;6.65;;;3.50;;
19828;SDS011;10075;50.924;4.396;2022-07-29T07:31:49;6.13;;;3.30;;
19828;SDS011;10075;50.924;4.396;2022-07-29T07:34:16;6.13;;;3.13;;
19828;SDS011;10075;50.924;4.396;2022-07-29T07:36:43;9.10;;;3.72;;
19828;SDS011;10075;50.924;4.396;2022-07-29T07:39:12;8.50;;;3.70;;
19828;SDS011;10075;50.924;4.396;2022-07-29T07:41:38;6.38;;;3.83;;
19828;SDS011;10075;50.924;4.396;2022-07-29T07:44:05;5.28;;;3.60;;
19828;SDS011;10075;50.924;4.396;2022-07-29T07:46:33;7.55;;;3.55;;
19828;SDS011;10075;50.924;4.396;2022-07-29T07:48:59;8.45;;;4.15;;
19828;SDS011;10075;50.924;4.396;2022-07-29T07:51:26;8.38;;;3.88;;
19828;SDS011;10075;50.924;4.396;2022-07-29T07:53:53;8.35;;;3.97;;
19828;SDS011;10075;50.924;4.396;2022-07-29T07:56:22;5.18;;;3.10;;
19828;SDS011;10075;50.924;4.396;2022-07-29T07:58:49;9.00;;;3.60;;
19828;SDS011;10075;50.924;4.396;2022-07-29T08:01:15;5.82;;;3.38;;
19828;SDS011;10075;50.924;4.396;2022-07-29T08:03:44;6.97;;;3.53;;
19828;SDS011;10075;50.924;4.396;2022-07-29T08:06:11;4.63;;;2.70;;
19828;SDS011;10075;50.924;4.396;2022-07-29T08:08:38;5.60;;;2.80;;
19828;SDS011;10075;50.924;4.396;2022-07-29T08:11:05;6.95;;;3.38;;
19828;SDS011;10075;50.924;4.396;2022-07-29T08:13:34;4.45;;;2.90;;
19828;SDS011;10075;50.924;4.396;2022-07-29T08:16:01;5.97;;;2.90;;
19828;SDS011;10075;50.924;4.396;2022-07-29T08:18:37;7.40;;;3.35;;
19828;SDS011;10075;50.924;4.396;2022-07-29T08:21:05;6.57;;;2.80;;
19828;SDS011;10075;50.924;4.396;2022-07-29T08:23:32;7.18;;;3.20;;
19828;SDS011;10075;50.924;4.396;2022-07-29T08:26:03;9.35;;;3.20;;
19828;SDS011;10075;50.924;4.396;2022-07-29T08:28:36;5.55;;;2.80;;
19828;SDS011;10075;50.924;4.396;2022-07-29T08:31:03;5.15;;;3.15;;
19828;SDS011;10075;50.924;4.396;2022-07-29T08:33:31;5.28;;;3.13;;
19828;SDS011;10075;50.924;4.396;2022-07-29T08:35:58;6.68;;;2.65;;
19828;SDS011;10075;50.924;4.396;2022-07-29T08:38:25;8.00;;;2.75;;
19828;SDS011;10075;50.924;4.396;2022-07-29T08:40:52;4.97;;;3.17;;
19828;SDS011;10075;50.924;4.396;2022-07-29T08:43:19;7.88;;;2.95;;
19828;SDS011;10075;50.924;4.396;2022-07-29T08:45:48;11.45;;;2.90;;
19828;SDS011;10075;50.924;4.396;2022-07-29T08:48:18;5.20;;;2.40;;
19828;SDS011;10075;50.924;4.396;2022-07-29T08:50:48;4.40;;;2.22;;
19828;SDS011;10075;50.924;4.396;2022-07-29T08:53:18;4.85;;;2.22;;
19828;SDS011;10075;50.924;4.396;2022-07-29T08:55:47;3.13;;;2.28;;
19828;SDS011;10075;50.924;4.396;2022-07-29T08:58:15;4.95;;;2.38;;
19828;SDS011;10075;50.924;4.396;2022-07-29T09:00:43;4.28;;;2.10;;
19828;SDS011;10075;50.924;4.396;2022-07-29T09:03:15;6.05;;;2.20;;
19828;SDS011;10075;50.924;4.396;2022-07-29T09:05:44;7.22;;;1.88;;
19828;SDS011;10075;50.924;4.396;2022-07-29T09:08:12;5.55;;;1.92;;
19828;SDS011;10075;50.924;4.396;2022-07-29T09:10:39;3.70;;;1.65;;
19828;SDS011;10075;50.924;4.396;2022-07-29T09:13:06;4.22;;;1.63;;
19828;SDS011;10075;50.924;4.396;2022-07-29T09:15:33;6.53;;;2.30;;
19828;SDS011;10075;50.924;4.396;2022-07-29T09:18:00;5.07;;;1.85;;
19828;SDS011;10075;50.924;4.396;2022-07-29T09:20:29;5.57;;;2.03;;
19828;SDS011;10075;50.924;4.396;2022-07-29T09:23:16;3.88;;;2.20;;
19828;SDS011;10075;50.924;4.396;2022-07-29T09:25:43;7.93;;;2.42;;
19828;SDS011;10075;50.924;4.396;2022-07-29T09:28:10;8.60;;;2.15;;
19828;SDS011;10075;50.924;4.396;2022-07-29T09:30:41;6.40;;;2.25;;
19828;SDS011;10075;50.924;4.396;2022-07-29T09:33:17;5.65;;;2.22;;
19828;SDS011;10075;50.924;4.396;2022-07-29T09:35:46;8.77;;;2.10;;
19828;SDS011;10075;50.924;4.396;2022-07-29T09:38:25;6.47;;;2.67;;
19828;SDS011;10075;50.924;4.396;2022-07-29T09:40:55;7.50;;;2.70;;
19828;SDS011;10075;50.924;4.396;2022-07-29T09:43:23;5.93;;;2.58;;
19828;SDS011;10075;50.924;4.396;2022-07-29T09:45:50;5.75;;;2.63;;
19828;SDS011;10075;50.924;4.396;2022-07-29T09:48:18;4.18;;;2.20;;
19828;SDS011;10075;50.924;4.396;2022-07-29T09:50:49;7.35;;;2.28;;
19828;SDS011;10075;50.924;4.396;2022-07-29T09:53:29;4.22;;;1.60;;
19828;SDS011;10075;50.924;4.396;2022-07-29T09:55:58;6.10;;;1.83;;
19828;SDS011;10075;50.924;4.396;2022-07-29T09:58:26;2.55;;;1.58;;
19828;SDS011;10075;50.924;4.396;2022-07-29T10:00:53;3.65;;;2.03;;
19828;SDS011;10075;50.924;4.396;2022-07-29T10:03:22;4.85;;;2.20;;
19828;SDS011;10075;50.924;4.396;2022-07-29T10:06:04;6.40;;;1.80;;
19828;SDS011;10075;50.924;4.396;2022-07-29T10:08:32;7.05;;;2.67;;
19828;SDS011;10075;50.924;4.396;2022-07-29T10:11:08;5.88;;;2.20;;
19828;SDS011;10075;50.924;4.396;2022-07-29T10:13:37;4.70;;;2.22;;
19828;SDS011;10075;50.924;4.396;2022-07-29T10:16:05;9.90;;;1.90;;
19828;SDS011;10075;50.924;4.396;2022-07-29T10:18:32;3.22;;;1.92;;
19828;SDS011;10075;50.924;4.396;2022-07-29T10:21:00;10.63;;;2.22;;
19828;SDS011;10075;50.924;4.396;2022-07-29T10:23:29;5.22;;;1.98;;
19828;SDS011;10075;50.924;4.396;2022-07-29T10:25:56;5.28;;;2.10;;
19828;SDS011;10075;50.924;4.396;2022-07-29T10:28:23;4.18;;;1.98;;
19828;SDS011;10075;50.924;4.396;2022-07-29T10:30:51;3.40;;;1.70;;
19828;SDS011;10075;50.924;4.396;2022-07-29T10:33:29;9.32;;;2.50;;
19828;SDS011;10075;50.924;4.396;2022-07-29T10:36:22;6.60;;;1.83;;
19828;SDS011;10075;50.924;4.396;2022-07-29T10:39:02;6.72;;;2.08;;
19828;SDS011;10075;50.924;4.396;2022-07-29T10:44:28;9.30;;;2.45;;
19828;SDS011;10075;50.924;4.396;2022-07-29T10:46:55;4.57;;;2.00;;
19828;SDS011;10075;50.924;4.396;2022-07-29T10:49:23;6.07;;;2.90;;
19828;SDS011;10075;50.924;4.396;2022-07-29T10:51:55;7.72;;;2.95;;
19828;SDS011;10075;50.924;4.396;2022-07-29T10:57:24;4.20;;;2.40;;
19828;SDS011;10075;50.924;4.396;2022-07-29T11:02:54;6.70;;;2.90;;
19828;SDS011;10075;50.924;4.396;2022-07-29T11:05:23;9.30;;;3.08;;
19828;SDS011;10075;50.924;4.396;2022-07-29T11:10:46;6.65;;;2.95;;
19828;SDS011;10075;50.924;4.396;2022-07-29T11:16:12;9.98;;;4.22;;
19828;SDS011;10075;50.924;4.396;2022-07-29T11:21:41;7.18;;;1.85;;
19828;SDS011;10075;50.924;4.396;2022-07-29T11:24:12;5.95;;;2.13;;
19828;SDS011;10075;50.924;4.396;2022-07-29T11:26:41;4.13;;;2.30;;
19828;SDS011;10075;50.924;4.396;2022-07-29T11:29:16;7.25;;;3.13;;
19828;SDS011;10075;50.924;4.396;2022-07-29T11:31:48;7.13;;;4.10;;
19828;SDS011;10075;50.924;4.396;2022-07-29T11:34:23;8.75;;;3.25;;
19828;SDS011;10075;50.924;4.396;2022-07-29T11:42:44;4.00;;;2.40;;
19828;SDS011;10075;50.924;4.396;2022-07-29T11:45:16;5.75;;;2.50;;
19828;SDS011;10075;50.924;4.396;2022-07-29T11:47:52;5.35;;;2.65;;
19828;SDS011;10075;50.924;4.396;2022-07-29T11:50:30;8.50;;;2.67;;
19828;SDS011;10075;50.924;4.396;2022-07-29T11:53:00;6.07;;;2.15;;
19828;SDS011;10075;50.924;4.396;2022-07-29T11:55:29;7.30;;;2.40;;
19828;SDS011;10075;50.924;4.396;2022-07-29T11:58:02;7.82;;;3.25;;
19828;SDS011;10075;50.924;4.396;2022-07-29T12:00:30;4.43;;;2.10;;
19828;SDS011;10075;50.924;4.396;2022-07-29T12:02:58;2.90;;;2.33;;
19828;SDS011;10075;50.924;4.396;2022-07-29T12:05:36;6.32;;;2.33;;
19828;SDS011;10075;50.924;4.396;2022-07-29T12:08:09;6.78;;;2.70;;
19828;SDS011;10075;50.924;4.396;2022-07-29T12:10:41;6.95;;;2.80;;
19828;SDS011;10075;50.924;4.396;2022-07-29T12:13:10;8.20;;;3.45;;
19828;SDS011;10075;50.924;4.396;2022-07-29T12:15:38;6.43;;;3.22;;
19828;SDS011;10075;50.924;4.396;2022-07-29T12:18:12;7.80;;;3.03;;
19828;SDS011;10075;50.924;4.396;2022-07-29T12:20:40;7.85;;;3.38;;
19828;SDS011;10075;50.924;4.396;2022-07-29T12:23:08;5.50;;;2.90;;
19828;SDS011;10075;50.924;4.396;2022-07-29T12:25:37;5.47;;;2.72;;
19828;SDS011;10075;50.924;4.396;2022-07-29T12:28:06;7.53;;;3.17;;
19828;SDS011;10075;50.924;4.396;2022-07-29T12:30:39;8.90;;;3.35;;
19828;SDS011;10075;50.924;4.396;2022-07-29T12:35:54;8.07;;;2.92;;
19828;SDS011;10075;50.924;4.396;2022-07-29T12:38:23;9.70;;;2.80;;
19828;SDS011;10075;50.924;4.396;2022-07-29T12:40:51;7.95;;;2.83;;
19828;SDS011;10075;50.924;4.396;2022-07-29T12:43:19;10.77;;;3.42;;
19828;SDS011;10075;50.924;4.396;2022-07-29T12:45:50;7.85;;;2.83;;
19828;SDS011;10075;50.924;4.396;2022-07-29T12:48:30;6.25;;;2.72;;
19828;SDS011;10075;50.924;4.396;2022-07-29T12:51:00;5.60;;;2.75;;
19828;SDS011;10075;50.924;4.396;2022-07-29T12:53:28;8.07;;;2.75;;
19828;SDS011;10075;50.924;4.396;2022-07-29T12:55:56;9.02;;;3.65;;
19828;SDS011;10075;50.924;4.396;2022-07-29T12:58:30;6.22;;;2.65;;
19828;SDS011;10075;50.924;4.396;2022-07-29T13:01:01;7.53;;;3.05;;
19828;SDS011;10075;50.924;4.396;2022-07-29T13:03:45;5.10;;;2.63;;
19828;SDS011;10075;50.924;4.396;2022-07-29T13:06:33;6.97;;;2.50;;
19828;SDS011;10075;50.924;4.396;2022-07-29T13:09:03;8.15;;;3.10;;
19828;SDS011;10075;50.924;4.396;2022-07-29T13:11:32;5.95;;;2.20;;
19828;SDS011;10075;50.924;4.396;2022-07-29T13:14:00;6.75;;;2.10;;
19828;SDS011;10075;50.924;4.396;2022-07-29T13:16:28;4.35;;;1.90;;
19828;SDS011;10075;50.924;4.396;2022-07-29T13:21:40;7.20;;;1.88;;
19828;SDS011;10075;50.924;4.396;2022-07-29T13:24:07;4.50;;;1.80;;
19828;SDS011;10075;50.924;4.396;2022-07-29T13:26:34;4.63;;;2.03;;
19828;SDS011;10075;50.924;4.396;2022-07-29T13:29:05;7.85;;;1.98;;
19828;SDS011;10075;50.924;4.396;2022-07-29T13:31:34;5.32;;;1.92;;
19828;SDS011;10075;50.924;4.396;2022-07-29T13:34:01;3.85;;;1.80;;
19828;SDS011;10075;50.924;4.396;2022-07-29T13:36:28;4.47;;;1.92;;
19828;SDS011;10075;50.924;4.396;2022-07-29T13:38:55;6.22;;;2.10;;
19828;SDS011;10075;50.924;4.396;2022-07-29T13:41:22;4.72;;;1.50;;
19828;SDS011;10075;50.924;4.396;2022-07-29T13:43:49;5.28;;;1.65;;
19828;SDS011;10075;50.924;4.396;2022-07-29T13:46:16;7.72;;;1.80;;
19828;SDS011;10075;50.924;4.396;2022-07-29T13:48:44;4.47;;;1.70;;
19828;SDS011;10075;50.924;4.396;2022-07-29T13:51:11;4.78;;;1.83;;
19828;SDS011;10075;50.924;4.396;2022-07-29T13:53:38;7.30;;;2.40;;
19828;SDS011;10075;50.924;4.396;2022-07-29T13:56:05;6.95;;;1.90;;
19828;SDS011;10075;50.924;4.396;2022-07-29T13:58:32;4.55;;;1.77;;
19828;SDS011;10075;50.924;4.396;2022-07-29T14:00:59;8.55;;;1.90;;
19828;SDS011;10075;50.924;4.396;2022-07-29T14:03:26;7.18;;;2.10;;
19828;SDS011;10075;50.924;4.396;2022-07-29T14:05:55;3.65;;;1.88;;
19828;SDS011;10075;50.924;4.396;2022-07-29T14:08:24;4.88;;;1.65;;
19828;SDS011;10075;50.924;4.396;2022-07-29T14:10:52;6.70;;;1.98;;
19828;SDS011;10075;50.924;4.396;2022-07-29T14:13:19;7.20;;;1.90;;
19828;SDS011;10075;50.924;4.396;2022-07-29T14:15:45;6.80;;;1.70;;
19828;SDS011;10075;50.924;4.396;2022-07-29T14:18:12;4.30;;;1.65;;
19828;SDS011;10075;50.924;4.396;2022-07-29T14:20:39;3.03;;;1.85;;
19828;SDS011;10075;50.924;4.396;2022-07-29T14:23:08;3.25;;;1.45;;
19828;SDS011;10075;50.924;4.396;2022-07-29T14:25:35;3.53;;;1.50;;
19828;SDS011;10075;50.924;4.396;2022-07-29T14:28:02;5.15;;;1.50;;
19828;SDS011;10075;50.924;4.396;2022-07-29T14:30:29;3.65;;;1.60;;
19828;SDS011;10075;50.924;4.396;2022-07-29T14:32:55;2.47;;;1.50;;
19828;SDS011;10075;50.924;4.396;2022-07-29T14:35:22;3.72;;;1.52;;
19828;SDS011;10075;50.924;4.396;2022-07-29T14:37:50;6.70;;;1.67;;
19828;SDS011;10075;50.924;4.396;2022-07-29T14:40:18;3.97;;;1.35;;
19828;SDS011;10075;50.924;4.396;2022-07-29T14:42:45;5.57;;;1.67;;
19828;SDS011;10075;50.924;4.396;2022-07-29T14:45:12;5.97;;;1.63;;
19828;SDS011;10075;50.924;4.396;2022-07-29T14:47:39;4.82;;;1.38;;
19828;SDS011;10075;50.924;4.396;2022-07-29T14:50:06;2.22;;;1.27;;
19828;SDS011;10075;50.924;4.396;2022-07-29T14:52:35;3.38;;;1.50;;
19828;SDS011;10075;50.924;4.396;2022-07-29T14:55:03;5.38;;;1.40;;
19828;SDS011;10075;50.924;4.396;2022-07-29T14:57:32;2.95;;;1.67;;
19828;SDS011;10075;50.924;4.396;2022-07-29T14:59:59;4.97;;;1.50;;
19828;SDS011;10075;50.924;4.396;2022-07-29T15:02:26;4.07;;;1.52;;
19828;SDS011;10075;50.924;4.396;2022-07-29T15:04:53;3.97;;;1.30;;
19828;SDS011;10075;50.924;4.396;2022-07-29T15:07:20;3.78;;;1.30;;
19828;SDS011;10075;50.924;4.396;2022-07-29T15:09:47;4.63;;;1.48;;
19828;SDS011;10075;50.924;4.396;2022-07-29T15:12:14;3.90;;;1.50;;
19828;SDS011;10075;50.924;4.396;2022-07-29T15:14:42;5.65;;;1.98;;
19828;SDS011;10075;50.924;4.396;2022-07-29T15:17:09;5.28;;;1.77;;
19828;SDS011;10075;50.924;4.396;2022-07-29T15:19:36;3.53;;;1.55;;
19828;SDS011;10075;50.924;4.396;2022-07-29T15:22:03;5.72;;;1.88;;
19828;SDS011;10075;50.924;4.396;2022-07-29T15:24:30;5.88;;;1.83;;
19828;SDS011;10075;50.924;4.396;2022-07-29T15:26:58;4.85;;;2.30;;
19828;SDS011;10075;50.924;4.396;2022-07-29T15:29:25;4.10;;;2.00;;